Hlavní strana
METAR-TAF:

METAR-TAF

Letiště :

Letiště Katowice

Katovice, Polsko

zeměpisná šířka: 50-28-27N, zeměpisná délka: 019-04-48E, výška: 284 m

Aktuální stav počasí

Zpráva byla vytvořena před 9 minutami, v 14:30 UTC
Severoseverovýchodní vítr 16 kt, proměnlivý mezi severním a severovýchodním
Teplota -1°C
Vlhkost vzduchu 40%
Tlak 1034 hPa
Viditelnost 10 km a více
Žádná oblačnost pod 1500 m, nevyskytují se cumulonimby.

METAR: EPKT 221430Z 02016KT 350V050 CAVOK M01/M13 Q1034

Čas: 15:39 (14:39 UTC)

Předpověď počasí

Zpráva byla vytvořena před 3 hodinami a 9 minutami, v 11:30 UTC
Předpověď platná od 22 v 12 UTC do 23 v 12 UTC
Severoseverovýchodní vítr 16 kt s nárazy do 26 kt
Viditelnost 10 km a více
Žádná oblačnost pod 1500 m, nevyskytují se cumulonimby.
Změna
od 22 v 13 UTC do 22 v 16 UTC
Východoseverovýchodní vítr 10 kt

TAF: EPKT 221130Z 2212/2312 03016G26KT CAVOK BECMG 2213/2216 06010KT

Stav a předpovědi počasí z více než 4 000 letišť (zprávy METAR a TAF).

Červené a žluté tečky na mapě představují dostupné meteorologické stanice.

Když kurzor umístíte na tečku, zobrazí se název stanice.

Pak kliknutím zobrazíte stav a předpověď počasí.

Chcete-li změnit mapu, kliknutím na zelené tlačítko se znaménkem +mapu přiblížíte, kliknutím na zelené tlačítko se znaménkem – mapu oddálíte a kliknutím na zelené šipky přejdete na sousední mapy.


METAR-TAF: